METAR Data

Data at: 0548 UTC 28 Sep 2022

METAR for:K1P1 (Plymouth Muni, NH, US)
Text:K1P1 280535Z AUTO 00000KT 7SM CLR 08/07 A2990 RMK AO2 T00760073
Temperature: 7.6°C ( 46°F)
Dewpoint: 7.3°C ( 45°F) [RH = 98%]
Pressure (altimeter):29.90 inches Hg (1012.6 mb)
Winds:calm
Visibility: 7 sm ( 11 km)
Ceiling:at least 12,000 feet AGL
Clouds:sky clear below 12,000 feet AGL
QC Flag:automated observation with no human augmentation